sensor_id;sensor_type;location;lat;lon;timestamp;P1;durP1;ratioP1;P2;durP2;ratioP2
14698;SDS011;7439;50.804;4.602;2022-09-09T00:00:40;14.87;;;13.87;;
14698;SDS011;7439;50.804;4.602;2022-09-09T00:03:12;14.13;;;12.77;;
14698;SDS011;7439;50.804;4.602;2022-09-09T00:05:43;13.17;;;12.37;;
14698;SDS011;7439;50.804;4.602;2022-09-09T00:08:13;12.73;;;11.83;;
14698;SDS011;7439;50.804;4.602;2022-09-09T00:10:42;14.13;;;13.23;;
14698;SDS011;7439;50.804;4.602;2022-09-09T00:13:13;15.47;;;14.50;;
14698;SDS011;7439;50.804;4.602;2022-09-09T00:15:44;15.03;;;14.03;;
14698;SDS011;7439;50.804;4.602;2022-09-09T00:18:18;15.13;;;13.83;;
14698;SDS011;7439;50.804;4.602;2022-09-09T00:20:52;15.70;;;14.60;;
14698;SDS011;7439;50.804;4.602;2022-09-09T00:23:23;14.23;;;13.53;;
14698;SDS011;7439;50.804;4.602;2022-09-09T00:25:54;15.17;;;13.83;;
14698;SDS011;7439;50.804;4.602;2022-09-09T00:28:24;16.57;;;15.10;;
14698;SDS011;7439;50.804;4.602;2022-09-09T00:30:52;15.63;;;14.57;;
14698;SDS011;7439;50.804;4.602;2022-09-09T00:33:22;14.90;;;13.87;;
14698;SDS011;7439;50.804;4.602;2022-09-09T00:35:51;16.07;;;15.20;;
14698;SDS011;7439;50.804;4.602;2022-09-09T00:38:19;17.00;;;15.67;;
14698;SDS011;7439;50.804;4.602;2022-09-09T00:40:51;15.90;;;14.90;;
14698;SDS011;7439;50.804;4.602;2022-09-09T00:43:26;17.10;;;15.40;;
14698;SDS011;7439;50.804;4.602;2022-09-09T00:48:43;16.30;;;15.20;;
14698;SDS011;7439;50.804;4.602;2022-09-09T00:51:14;16.63;;;15.83;;
14698;SDS011;7439;50.804;4.602;2022-09-09T00:53:51;17.50;;;16.47;;
14698;SDS011;7439;50.804;4.602;2022-09-09T00:56:30;16.33;;;15.10;;
14698;SDS011;7439;50.804;4.602;2022-09-09T00:59:12;15.10;;;13.97;;
14698;SDS011;7439;50.804;4.602;2022-09-09T01:01:43;14.90;;;13.90;;
14698;SDS011;7439;50.804;4.602;2022-09-09T01:04:13;15.03;;;13.83;;
14698;SDS011;7439;50.804;4.602;2022-09-09T01:06:48;17.10;;;15.63;;
14698;SDS011;7439;50.804;4.602;2022-09-09T01:09:22;17.60;;;16.13;;
14698;SDS011;7439;50.804;4.602;2022-09-09T01:11:55;18.40;;;17.40;;
14698;SDS011;7439;50.804;4.602;2022-09-09T01:14:30;19.80;;;18.27;;
14698;SDS011;7439;50.804;4.602;2022-09-09T01:17:12;19.63;;;18.47;;
14698;SDS011;7439;50.804;4.602;2022-09-09T01:19:52;19.70;;;18.30;;
14698;SDS011;7439;50.804;4.602;2022-09-09T01:22:29;17.53;;;16.53;;
14698;SDS011;7439;50.804;4.602;2022-09-09T01:25:19;18.10;;;17.03;;
14698;SDS011;7439;50.804;4.602;2022-09-09T01:28:00;18.10;;;16.80;;
14698;SDS011;7439;50.804;4.602;2022-09-09T01:30:29;22.80;;;20.73;;
14698;SDS011;7439;50.804;4.602;2022-09-09T01:32:59;24.83;;;23.07;;
14698;SDS011;7439;50.804;4.602;2022-09-09T01:35:29;23.47;;;22.17;;
14698;SDS011;7439;50.804;4.602;2022-09-09T01:38:04;25.17;;;23.77;;
14698;SDS011;7439;50.804;4.602;2022-09-09T01:40:32;25.00;;;23.63;;
14698;SDS011;7439;50.804;4.602;2022-09-09T01:43:01;28.47;;;26.60;;
14698;SDS011;7439;50.804;4.602;2022-09-09T01:45:28;28.17;;;26.67;;
14698;SDS011;7439;50.804;4.602;2022-09-09T01:47:56;27.57;;;25.87;;
14698;SDS011;7439;50.804;4.602;2022-09-09T01:50:24;31.07;;;29.40;;
14698;SDS011;7439;50.804;4.602;2022-09-09T01:52:52;33.63;;;31.67;;
14698;SDS011;7439;50.804;4.602;2022-09-09T01:55:23;34.10;;;31.90;;
14698;SDS011;7439;50.804;4.602;2022-09-09T01:57:56;32.33;;;30.63;;
14698;SDS011;7439;50.804;4.602;2022-09-09T02:00:31;32.30;;;30.50;;
14698;SDS011;7439;50.804;4.602;2022-09-09T02:03:04;33.60;;;31.73;;
14698;SDS011;7439;50.804;4.602;2022-09-09T02:05:41;33.13;;;31.13;;
14698;SDS011;7439;50.804;4.602;2022-09-09T02:08:15;34.80;;;32.17;;
14698;SDS011;7439;50.804;4.602;2022-09-09T02:10:47;32.17;;;30.27;;
14698;SDS011;7439;50.804;4.602;2022-09-09T02:13:21;30.67;;;28.57;;
14698;SDS011;7439;50.804;4.602;2022-09-09T02:15:50;33.57;;;31.07;;
14698;SDS011;7439;50.804;4.602;2022-09-09T02:18:22;31.17;;;28.80;;
14698;SDS011;7439;50.804;4.602;2022-09-09T02:20:53;32.73;;;30.40;;
14698;SDS011;7439;50.804;4.602;2022-09-09T02:23:22;32.00;;;29.73;;
14698;SDS011;7439;50.804;4.602;2022-09-09T02:25:50;35.77;;;32.50;;
14698;SDS011;7439;50.804;4.602;2022-09-09T02:28:21;35.67;;;33.07;;
14698;SDS011;7439;50.804;4.602;2022-09-09T02:30:51;34.60;;;32.27;;
14698;SDS011;7439;50.804;4.602;2022-09-09T02:33:20;38.50;;;35.67;;
14698;SDS011;7439;50.804;4.602;2022-09-09T02:35:52;35.60;;;33.30;;
14698;SDS011;7439;50.804;4.602;2022-09-09T02:38:21;39.67;;;36.77;;
14698;SDS011;7439;50.804;4.602;2022-09-09T02:40:52;41.73;;;38.60;;
14698;SDS011;7439;50.804;4.602;2022-09-09T02:43:21;40.20;;;37.57;;
14698;SDS011;7439;50.804;4.602;2022-09-09T02:45:50;36.57;;;33.43;;
14698;SDS011;7439;50.804;4.602;2022-09-09T02:48:25;37.13;;;34.67;;
14698;SDS011;7439;50.804;4.602;2022-09-09T02:50:57;39.47;;;36.77;;
14698;SDS011;7439;50.804;4.602;2022-09-09T02:53:32;42.47;;;39.80;;
14698;SDS011;7439;50.804;4.602;2022-09-09T02:56:08;43.20;;;40.53;;
14698;SDS011;7439;50.804;4.602;2022-09-09T02:58:42;40.30;;;37.57;;
14698;SDS011;7439;50.804;4.602;2022-09-09T03:01:11;43.23;;;40.13;;
14698;SDS011;7439;50.804;4.602;2022-09-09T03:03:39;48.67;;;45.33;;
14698;SDS011;7439;50.804;4.602;2022-09-09T03:06:07;48.83;;;45.23;;
14698;SDS011;7439;50.804;4.602;2022-09-09T03:08:35;46.13;;;42.97;;
14698;SDS011;7439;50.804;4.602;2022-09-09T03:11:02;50.90;;;47.33;;
14698;SDS011;7439;50.804;4.602;2022-09-09T03:13:29;48.07;;;44.17;;
14698;SDS011;7439;50.804;4.602;2022-09-09T03:15:58;49.13;;;45.87;;
14698;SDS011;7439;50.804;4.602;2022-09-09T03:18:25;49.83;;;46.90;;
14698;SDS011;7439;50.804;4.602;2022-09-09T03:20:53;49.83;;;47.13;;
14698;SDS011;7439;50.804;4.602;2022-09-09T03:23:20;52.10;;;48.47;;
14698;SDS011;7439;50.804;4.602;2022-09-09T03:25:48;53.87;;;49.80;;
14698;SDS011;7439;50.804;4.602;2022-09-09T03:28:19;56.77;;;52.60;;
14698;SDS011;7439;50.804;4.602;2022-09-09T03:30:48;54.33;;;51.23;;
14698;SDS011;7439;50.804;4.602;2022-09-09T03:33:17;52.23;;;49.10;;
14698;SDS011;7439;50.804;4.602;2022-09-09T03:35:45;58.33;;;54.63;;
14698;SDS011;7439;50.804;4.602;2022-09-09T03:38:13;53.93;;;50.57;;
14698;SDS011;7439;50.804;4.602;2022-09-09T03:40:47;52.57;;;49.77;;
14698;SDS011;7439;50.804;4.602;2022-09-09T03:43:15;51.43;;;48.53;;
14698;SDS011;7439;50.804;4.602;2022-09-09T03:45:46;54.77;;;51.23;;
14698;SDS011;7439;50.804;4.602;2022-09-09T03:48:18;52.30;;;48.80;;
14698;SDS011;7439;50.804;4.602;2022-09-09T03:50:46;53.43;;;50.07;;
14698;SDS011;7439;50.804;4.602;2022-09-09T03:53:14;54.83;;;50.97;;
14698;SDS011;7439;50.804;4.602;2022-09-09T03:55:43;54.87;;;51.80;;
14698;SDS011;7439;50.804;4.602;2022-09-09T03:58:11;55.97;;;52.73;;
14698;SDS011;7439;50.804;4.602;2022-09-09T04:00:39;58.07;;;54.20;;
14698;SDS011;7439;50.804;4.602;2022-09-09T04:03:07;56.93;;;53.73;;
14698;SDS011;7439;50.804;4.602;2022-09-09T04:05:36;56.40;;;53.27;;
14698;SDS011;7439;50.804;4.602;2022-09-09T04:08:07;54.73;;;50.90;;
14698;SDS011;7439;50.804;4.602;2022-09-09T04:10:36;56.57;;;52.80;;
14698;SDS011;7439;50.804;4.602;2022-09-09T04:13:03;54.30;;;51.30;;
14698;SDS011;7439;50.804;4.602;2022-09-09T04:15:31;57.57;;;54.30;;
14698;SDS011;7439;50.804;4.602;2022-09-09T04:18:00;55.43;;;52.30;;
14698;SDS011;7439;50.804;4.602;2022-09-09T04:20:27;58.47;;;55.47;;
14698;SDS011;7439;50.804;4.602;2022-09-09T04:22:56;60.13;;;56.57;;
14698;SDS011;7439;50.804;4.602;2022-09-09T04:25:23;62.60;;;58.97;;
14698;SDS011;7439;50.804;4.602;2022-09-09T04:27:53;67.00;;;63.20;;
14698;SDS011;7439;50.804;4.602;2022-09-09T04:30:20;69.60;;;65.87;;
14698;SDS011;7439;50.804;4.602;2022-09-09T04:32:47;69.50;;;65.60;;
14698;SDS011;7439;50.804;4.602;2022-09-09T04:35:17;69.43;;;65.80;;
14698;SDS011;7439;50.804;4.602;2022-09-09T04:37:45;70.47;;;65.83;;
14698;SDS011;7439;50.804;4.602;2022-09-09T04:40:15;70.80;;;66.40;;
14698;SDS011;7439;50.804;4.602;2022-09-09T04:42:42;73.73;;;70.00;;
14698;SDS011;7439;50.804;4.602;2022-09-09T04:45:10;76.47;;;72.23;;
14698;SDS011;7439;50.804;4.602;2022-09-09T04:47:38;74.07;;;70.27;;
14698;SDS011;7439;50.804;4.602;2022-09-09T04:50:06;76.00;;;71.87;;
14698;SDS011;7439;50.804;4.602;2022-09-09T04:52:34;75.90;;;71.80;;
14698;SDS011;7439;50.804;4.602;2022-09-09T04:55:02;71.17;;;66.73;;
14698;SDS011;7439;50.804;4.602;2022-09-09T04:57:31;76.03;;;71.87;;
14698;SDS011;7439;50.804;4.602;2022-09-09T05:00:00;78.27;;;74.00;;
14698;SDS011;7439;50.804;4.602;2022-09-09T05:02:27;81.43;;;76.87;;
14698;SDS011;7439;50.804;4.602;2022-09-09T05:04:55;84.50;;;79.70;;
14698;SDS011;7439;50.804;4.602;2022-09-09T05:07:23;78.73;;;74.70;;
14698;SDS011;7439;50.804;4.602;2022-09-09T05:09:51;88.17;;;83.67;;
14698;SDS011;7439;50.804;4.602;2022-09-09T05:12:18;88.37;;;83.60;;
14698;SDS011;7439;50.804;4.602;2022-09-09T05:14:52;87.23;;;82.27;;
14698;SDS011;7439;50.804;4.602;2022-09-09T05:17:21;89.27;;;84.83;;
14698;SDS011;7439;50.804;4.602;2022-09-09T05:19:49;84.27;;;79.77;;
14698;SDS011;7439;50.804;4.602;2022-09-09T05:22:18;96.17;;;91.67;;
14698;SDS011;7439;50.804;4.602;2022-09-09T05:24:46;97.93;;;93.00;;
14698;SDS011;7439;50.804;4.602;2022-09-09T05:27:16;104.43;;;98.97;;
14698;SDS011;7439;50.804;4.602;2022-09-09T05:29:44;106.50;;;101.43;;
14698;SDS011;7439;50.804;4.602;2022-09-09T05:32:13;103.13;;;97.97;;
14698;SDS011;7439;50.804;4.602;2022-09-09T05:34:41;102.07;;;97.10;;
14698;SDS011;7439;50.804;4.602;2022-09-09T05:37:08;109.83;;;104.63;;
14698;SDS011;7439;50.804;4.602;2022-09-09T05:39:35;111.37;;;106.50;;
14698;SDS011;7439;50.804;4.602;2022-09-09T05:42:03;122.60;;;116.83;;
14698;SDS011;7439;50.804;4.602;2022-09-09T05:44:31;128.47;;;122.83;;
14698;SDS011;7439;50.804;4.602;2022-09-09T05:46:58;122.37;;;116.70;;
14698;SDS011;7439;50.804;4.602;2022-09-09T05:49:26;139.40;;;133.37;;
14698;SDS011;7439;50.804;4.602;2022-09-09T05:51:53;146.30;;;139.87;;
14698;SDS011;7439;50.804;4.602;2022-09-09T05:54:21;148.13;;;142.07;;
14698;SDS011;7439;50.804;4.602;2022-09-09T05:56:48;143.17;;;136.27;;
14698;SDS011;7439;50.804;4.602;2022-09-09T05:59:16;139.40;;;133.27;;
14698;SDS011;7439;50.804;4.602;2022-09-09T06:01:43;125.77;;;120.50;;
14698;SDS011;7439;50.804;4.602;2022-09-09T06:04:10;107.23;;;102.13;;
14698;SDS011;7439;50.804;4.602;2022-09-09T06:06:39;90.87;;;86.67;;
14698;SDS011;7439;50.804;4.602;2022-09-09T06:09:07;84.70;;;79.97;;
14698;SDS011;7439;50.804;4.602;2022-09-09T06:11:37;83.37;;;78.80;;
14698;SDS011;7439;50.804;4.602;2022-09-09T06:14:05;79.20;;;73.83;;
14698;SDS011;7439;50.804;4.602;2022-09-09T06:16:33;64.53;;;61.13;;
14698;SDS011;7439;50.804;4.602;2022-09-09T06:19:02;58.60;;;55.30;;
14698;SDS011;7439;50.804;4.602;2022-09-09T06:21:30;56.57;;;53.67;;
14698;SDS011;7439;50.804;4.602;2022-09-09T06:24:00;48.87;;;46.20;;
14698;SDS011;7439;50.804;4.602;2022-09-09T06:26:29;46.03;;;43.00;;
14698;SDS011;7439;50.804;4.602;2022-09-09T06:28:57;40.73;;;38.17;;
14698;SDS011;7439;50.804;4.602;2022-09-09T06:31:25;38.00;;;35.60;;
14698;SDS011;7439;50.804;4.602;2022-09-09T06:33:55;39.60;;;37.17;;
14698;SDS011;7439;50.804;4.602;2022-09-09T06:36:24;37.37;;;34.83;;
14698;SDS011;7439;50.804;4.602;2022-09-09T06:38:52;34.40;;;31.97;;
14698;SDS011;7439;50.804;4.602;2022-09-09T06:41:25;34.77;;;32.27;;
14698;SDS011;7439;50.804;4.602;2022-09-09T06:43:53;32.17;;;29.37;;
14698;SDS011;7439;50.804;4.602;2022-09-09T06:46:22;23.00;;;21.30;;
14698;SDS011;7439;50.804;4.602;2022-09-09T06:48:53;21.13;;;19.53;;
14698;SDS011;7439;50.804;4.602;2022-09-09T06:51:23;18.03;;;16.27;;
14698;SDS011;7439;50.804;4.602;2022-09-09T06:53:51;13.53;;;12.17;;
14698;SDS011;7439;50.804;4.602;2022-09-09T06:56:21;11.93;;;10.57;;
14698;SDS011;7439;50.804;4.602;2022-09-09T06:58:51;11.33;;;8.80;;
14698;SDS011;7439;50.804;4.602;2022-09-09T07:01:20;11.77;;;9.27;;
14698;SDS011;7439;50.804;4.602;2022-09-09T07:03:49;14.97;;;7.70;;
14698;SDS011;7439;50.804;4.602;2022-09-09T07:06:18;10.03;;;6.97;;
14698;SDS011;7439;50.804;4.602;2022-09-09T07:08:50;9.30;;;6.23;;
14698;SDS011;7439;50.804;4.602;2022-09-09T07:11:19;10.47;;;6.43;;
14698;SDS011;7439;50.804;4.602;2022-09-09T07:13:47;8.10;;;5.20;;
14698;SDS011;7439;50.804;4.602;2022-09-09T07:16:17;10.57;;;5.10;;
14698;SDS011;7439;50.804;4.602;2022-09-09T07:18:46;7.27;;;4.83;;
14698;SDS011;7439;50.804;4.602;2022-09-09T07:21:15;8.37;;;4.23;;
14698;SDS011;7439;50.804;4.602;2022-09-09T07:23:47;10.63;;;4.03;;
14698;SDS011;7439;50.804;4.602;2022-09-09T07:26:15;8.37;;;4.50;;
14698;SDS011;7439;50.804;4.602;2022-09-09T07:28:44;8.27;;;4.00;;
14698;SDS011;7439;50.804;4.602;2022-09-09T07:31:13;8.37;;;4.10;;
14698;SDS011;7439;50.804;4.602;2022-09-09T07:33:43;7.97;;;4.30;;
14698;SDS011;7439;50.804;4.602;2022-09-09T07:36:13;9.97;;;4.10;;
14698;SDS011;7439;50.804;4.602;2022-09-09T07:38:43;11.63;;;4.20;;
14698;SDS011;7439;50.804;4.602;2022-09-09T07:41:12;10.37;;;4.53;;
14698;SDS011;7439;50.804;4.602;2022-09-09T07:43:41;14.73;;;13.40;;
14698;SDS011;7439;50.804;4.602;2022-09-09T07:46:10;14.00;;;12.60;;
14698;SDS011;7439;50.804;4.602;2022-09-09T07:48:39;11.20;;;10.23;;
14698;SDS011;7439;50.804;4.602;2022-09-09T07:51:12;10.50;;;9.37;;
14698;SDS011;7439;50.804;4.602;2022-09-09T07:53:42;8.03;;;7.20;;
14698;SDS011;7439;50.804;4.602;2022-09-09T07:56:09;13.47;;;8.37;;
14698;SDS011;7439;50.804;4.602;2022-09-09T07:58:38;15.07;;;8.03;;
14698;SDS011;7439;50.804;4.602;2022-09-09T08:01:07;11.30;;;8.07;;
14698;SDS011;7439;50.804;4.602;2022-09-09T08:03:36;12.77;;;7.80;;
14698;SDS011;7439;50.804;4.602;2022-09-09T08:06:06;9.90;;;9.17;;
14698;SDS011;7439;50.804;4.602;2022-09-09T08:08:34;9.73;;;8.63;;
14698;SDS011;7439;50.804;4.602;2022-09-09T08:11:04;11.53;;;8.77;;
14698;SDS011;7439;50.804;4.602;2022-09-09T08:13:36;11.00;;;7.17;;
14698;SDS011;7439;50.804;4.602;2022-09-09T08:16:05;14.57;;;7.63;;
14698;SDS011;7439;50.804;4.602;2022-09-09T08:18:33;13.47;;;6.73;;
14698;SDS011;7439;50.804;4.602;2022-09-09T08:21:09;12.60;;;6.53;;
14698;SDS011;7439;50.804;4.602;2022-09-09T08:23:38;9.20;;;5.70;;
14698;SDS011;7439;50.804;4.602;2022-09-09T08:26:06;6.47;;;5.23;;
14698;SDS011;7439;50.804;4.602;2022-09-09T08:28:35;8.67;;;4.57;;
14698;SDS011;7439;50.804;4.602;2022-09-09T08:31:06;9.53;;;4.23;;
14698;SDS011;7439;50.804;4.602;2022-09-09T08:33:34;8.07;;;4.10;;
14698;SDS011;7439;50.804;4.602;2022-09-09T08:36:03;11.23;;;3.80;;
14698;SDS011;7439;50.804;4.602;2022-09-09T08:38:40;8.27;;;4.03;;
14698;SDS011;7439;50.804;4.602;2022-09-09T08:41:16;5.87;;;3.43;;
14698;SDS011;7439;50.804;4.602;2022-09-09T08:44:00;10.83;;;3.57;;
14698;SDS011;7439;50.804;4.602;2022-09-09T08:46:32;9.53;;;4.17;;
14698;SDS011;7439;50.804;4.602;2022-09-09T08:49:06;22.73;;;21.13;;
14698;SDS011;7439;50.804;4.602;2022-09-09T08:51:47;33.97;;;31.63;;
14698;SDS011;7439;50.804;4.602;2022-09-09T08:54:17;37.50;;;35.30;;
14698;SDS011;7439;50.804;4.602;2022-09-09T08:56:44;44.63;;;42.27;;
14698;SDS011;7439;50.804;4.602;2022-09-09T08:59:11;41.03;;;38.43;;
14698;SDS011;7439;50.804;4.602;2022-09-09T09:01:50;44.03;;;41.77;;
14698;SDS011;7439;50.804;4.602;2022-09-09T09:04:28;42.07;;;39.13;;
14698;SDS011;7439;50.804;4.602;2022-09-09T09:07:05;41.43;;;39.07;;
14698;SDS011;7439;50.804;4.602;2022-09-09T09:09:42;49.10;;;46.47;;
14698;SDS011;7439;50.804;4.602;2022-09-09T09:12:18;51.03;;;48.43;;
14698;SDS011;7439;50.804;4.602;2022-09-09T09:14:48;60.63;;;57.60;;
14698;SDS011;7439;50.804;4.602;2022-09-09T09:17:16;63.40;;;59.90;;
14698;SDS011;7439;50.804;4.602;2022-09-09T09:19:45;70.10;;;66.60;;
14698;SDS011;7439;50.804;4.602;2022-09-09T09:22:16;90.23;;;86.23;;
14698;SDS011;7439;50.804;4.602;2022-09-09T09:24:51;93.60;;;89.50;;
14698;SDS011;7439;50.804;4.602;2022-09-09T09:27:22;88.97;;;84.63;;
14698;SDS011;7439;50.804;4.602;2022-09-09T09:29:57;95.90;;;91.63;;
14698;SDS011;7439;50.804;4.602;2022-09-09T09:32:27;90.00;;;86.00;;
14698;SDS011;7439;50.804;4.602;2022-09-09T09:34:59;91.63;;;87.57;;
14698;SDS011;7439;50.804;4.602;2022-09-09T09:37:35;104.10;;;99.50;;
14698;SDS011;7439;50.804;4.602;2022-09-09T09:40:10;112.50;;;107.60;;
14698;SDS011;7439;50.804;4.602;2022-09-09T09:42:47;110.33;;;105.50;;
14698;SDS011;7439;50.804;4.602;2022-09-09T09:45:16;115.07;;;110.17;;
14698;SDS011;7439;50.804;4.602;2022-09-09T09:47:57;115.00;;;109.70;;
14698;SDS011;7439;50.804;4.602;2022-09-09T09:50:25;132.87;;;126.60;;
14698;SDS011;7439;50.804;4.602;2022-09-09T09:52:55;123.30;;;117.47;;
14698;SDS011;7439;50.804;4.602;2022-09-09T09:55:25;119.77;;;114.60;;
14698;SDS011;7439;50.804;4.602;2022-09-09T09:58:00;120.97;;;115.67;;
14698;SDS011;7439;50.804;4.602;2022-09-09T10:00:29;128.67;;;123.10;;
14698;SDS011;7439;50.804;4.602;2022-09-09T10:02:56;146.13;;;140.13;;
14698;SDS011;7439;50.804;4.602;2022-09-09T10:05:26;147.10;;;140.73;;
14698;SDS011;7439;50.804;4.602;2022-09-09T10:08:01;141.07;;;134.70;;
14698;SDS011;7439;50.804;4.602;2022-09-09T10:10:34;142.27;;;135.57;;
14698;SDS011;7439;50.804;4.602;2022-09-09T10:13:10;140.90;;;134.57;;
14698;SDS011;7439;50.804;4.602;2022-09-09T10:15:44;126.57;;;121.23;;
14698;SDS011;7439;50.804;4.602;2022-09-09T10:18:22;138.93;;;133.37;;
14698;SDS011;7439;50.804;4.602;2022-09-09T10:21:03;144.83;;;138.73;;
14698;SDS011;7439;50.804;4.602;2022-09-09T10:23:47;142.33;;;136.67;;
14698;SDS011;7439;50.804;4.602;2022-09-09T10:26:31;137.07;;;131.37;;
14698;SDS011;7439;50.804;4.602;2022-09-09T10:29:10;137.40;;;131.57;;
14698;SDS011;7439;50.804;4.602;2022-09-09T10:31:51;144.77;;;138.57;;
14698;SDS011;7439;50.804;4.602;2022-09-09T10:34:30;157.03;;;150.50;;
14698;SDS011;7439;50.804;4.602;2022-09-09T10:37:15;146.90;;;140.43;;
14698;SDS011;7439;50.804;4.602;2022-09-09T10:39:48;152.73;;;146.10;;
14698;SDS011;7439;50.804;4.602;2022-09-09T10:42:25;146.33;;;140.10;;
14698;SDS011;7439;50.804;4.602;2022-09-09T10:45:00;160.17;;;153.50;;
14698;SDS011;7439;50.804;4.602;2022-09-09T10:47:40;156.50;;;150.07;;
14698;SDS011;7439;50.804;4.602;2022-09-09T10:50:24;174.43;;;166.97;;
14698;SDS011;7439;50.804;4.602;2022-09-09T10:53:14;188.07;;;180.07;;
14698;SDS011;7439;50.804;4.602;2022-09-09T10:55:48;215.20;;;206.73;;
14698;SDS011;7439;50.804;4.602;2022-09-09T10:58:20;218.03;;;209.53;;
14698;SDS011;7439;50.804;4.602;2022-09-09T11:00:53;200.77;;;192.87;;
14698;SDS011;7439;50.804;4.602;2022-09-09T11:03:28;189.10;;;181.73;;
14698;SDS011;7439;50.804;4.602;2022-09-09T11:05:57;183.17;;;176.07;;
14698;SDS011;7439;50.804;4.602;2022-09-09T11:08:31;201.97;;;193.90;;
14698;SDS011;7439;50.804;4.602;2022-09-09T11:11:02;200.90;;;192.80;;
14698;SDS011;7439;50.804;4.602;2022-09-09T11:13:35;199.37;;;191.80;;
14698;SDS011;7439;50.804;4.602;2022-09-09T11:16:12;224.83;;;215.50;;
14698;SDS011;7439;50.804;4.602;2022-09-09T11:18:48;187.53;;;179.73;;
14698;SDS011;7439;50.804;4.602;2022-09-09T11:21:19;240.47;;;231.37;;
14698;SDS011;7439;50.804;4.602;2022-09-09T11:23:52;234.57;;;225.87;;
14698;SDS011;7439;50.804;4.602;2022-09-09T11:26:27;231.33;;;222.67;;
14698;SDS011;7439;50.804;4.602;2022-09-09T11:29:09;268.43;;;257.97;;
14698;SDS011;7439;50.804;4.602;2022-09-09T11:32:01;294.77;;;283.73;;
14698;SDS011;7439;50.804;4.602;2022-09-09T11:34:44;284.30;;;273.90;;
14698;SDS011;7439;50.804;4.602;2022-09-09T11:40:21;302.27;;;290.50;;
14698;SDS011;7439;50.804;4.602;2022-09-09T11:43:00;293.00;;;282.20;;
14698;SDS011;7439;50.804;4.602;2022-09-09T11:45:33;278.50;;;268.27;;
14698;SDS011;7439;50.804;4.602;2022-09-09T11:48:02;255.67;;;246.17;;
14698;SDS011;7439;50.804;4.602;2022-09-09T11:50:35;263.23;;;253.17;;
14698;SDS011;7439;50.804;4.602;2022-09-09T11:53:17;235.17;;;226.27;;
14698;SDS011;7439;50.804;4.602;2022-09-09T11:56:05;208.83;;;200.97;;
14698;SDS011;7439;50.804;4.602;2022-09-09T11:58:41;185.57;;;178.07;;
14698;SDS011;7439;50.804;4.602;2022-09-09T12:01:16;187.53;;;180.27;;
14698;SDS011;7439;50.804;4.602;2022-09-09T12:04:26;153.70;;;147.50;;
14698;SDS011;7439;50.804;4.602;2022-09-09T12:06:59;147.87;;;142.03;;
14698;SDS011;7439;50.804;4.602;2022-09-09T12:17:49;92.30;;;88.17;;
14698;SDS011;7439;50.804;4.602;2022-09-09T12:20:19;83.90;;;80.20;;
14698;SDS011;7439;50.804;4.602;2022-09-09T12:23:00;79.00;;;75.57;;
14698;SDS011;7439;50.804;4.602;2022-09-09T12:26:03;62.23;;;59.33;;
14698;SDS011;7439;50.804;4.602;2022-09-09T12:28:52;53.13;;;50.73;;
14698;SDS011;7439;50.804;4.602;2022-09-09T12:31:26;48.83;;;46.63;;
14698;SDS011;7439;50.804;4.602;2022-09-09T12:34:04;35.37;;;33.70;;
14698;SDS011;7439;50.804;4.602;2022-09-09T12:36:40;30.27;;;28.77;;
14698;SDS011;7439;50.804;4.602;2022-09-09T12:39:12;25.87;;;24.27;;
14698;SDS011;7439;50.804;4.602;2022-09-09T12:41:52;22.83;;;21.50;;
14698;SDS011;7439;50.804;4.602;2022-09-09T12:44:22;17.43;;;16.37;;
14698;SDS011;7439;50.804;4.602;2022-09-09T12:46:49;16.63;;;15.67;;
14698;SDS011;7439;50.804;4.602;2022-09-09T12:49:26;17.03;;;15.67;;
14698;SDS011;7439;50.804;4.602;2022-09-09T12:51:59;13.93;;;13.13;;
14698;SDS011;7439;50.804;4.602;2022-09-09T12:54:30;11.63;;;10.93;;
14698;SDS011;7439;50.804;4.602;2022-09-09T12:56:58;9.77;;;9.07;;
14698;SDS011;7439;50.804;4.602;2022-09-09T12:59:26;8.43;;;7.63;;
14698;SDS011;7439;50.804;4.602;2022-09-09T13:02:02;7.30;;;6.67;;
14698;SDS011;7439;50.804;4.602;2022-09-09T13:04:39;6.17;;;4.83;;
14698;SDS011;7439;50.804;4.602;2022-09-09T13:07:06;7.33;;;5.43;;
14698;SDS011;7439;50.804;4.602;2022-09-09T13:09:35;6.17;;;4.47;;
14698;SDS011;7439;50.804;4.602;2022-09-09T13:12:02;6.27;;;4.50;;
14698;SDS011;7439;50.804;4.602;2022-09-09T13:14:35;6.57;;;4.40;;
14698;SDS011;7439;50.804;4.602;2022-09-09T13:17:03;4.33;;;3.60;;
14698;SDS011;7439;50.804;4.602;2022-09-09T13:19:34;6.67;;;4.17;;
14698;SDS011;7439;50.804;4.602;2022-09-09T13:22:12;6.13;;;3.67;;
14698;SDS011;7439;50.804;4.602;2022-09-09T13:24:40;5.90;;;3.33;;
14698;SDS011;7439;50.804;4.602;2022-09-09T13:27:21;4.70;;;3.50;;
14698;SDS011;7439;50.804;4.602;2022-09-09T13:29:53;7.23;;;3.60;;
14698;SDS011;7439;50.804;4.602;2022-09-09T13:32:22;4.87;;;3.33;;
14698;SDS011;7439;50.804;4.602;2022-09-09T13:34:52;4.83;;;3.37;;
14698;SDS011;7439;50.804;4.602;2022-09-09T13:37:23;4.93;;;3.30;;
14698;SDS011;7439;50.804;4.602;2022-09-09T13:39:55;6.20;;;4.03;;
14698;SDS011;7439;50.804;4.602;2022-09-09T13:42:24;4.67;;;3.07;;
14698;SDS011;7439;50.804;4.602;2022-09-09T13:44:52;4.03;;;3.30;;
14698;SDS011;7439;50.804;4.602;2022-09-09T13:47:21;3.90;;;3.30;;
14698;SDS011;7439;50.804;4.602;2022-09-09T13:49:55;3.90;;;3.50;;
14698;SDS011;7439;50.804;4.602;2022-09-09T13:52:24;4.57;;;3.43;;
14698;SDS011;7439;50.804;4.602;2022-09-09T13:54:53;3.87;;;3.47;;
14698;SDS011;7439;50.804;4.602;2022-09-09T13:57:21;6.50;;;3.40;;
14698;SDS011;7439;50.804;4.602;2022-09-09T13:59:50;4.10;;;3.70;;
14698;SDS011;7439;50.804;4.602;2022-09-09T14:02:19;4.37;;;3.23;;
14698;SDS011;7439;50.804;4.602;2022-09-09T14:04:48;3.90;;;3.50;;
14698;SDS011;7439;50.804;4.602;2022-09-09T14:07:20;3.23;;;2.93;;
14698;SDS011;7439;50.804;4.602;2022-09-09T14:09:51;5.10;;;3.17;;
14698;SDS011;7439;50.804;4.602;2022-09-09T14:12:18;3.70;;;2.97;;
14698;SDS011;7439;50.804;4.602;2022-09-09T14:14:45;4.93;;;2.90;;
14698;SDS011;7439;50.804;4.602;2022-09-09T14:17:15;6.57;;;3.93;;
14698;SDS011;7439;50.804;4.602;2022-09-09T14:19:42;5.13;;;3.40;;
14698;SDS011;7439;50.804;4.602;2022-09-09T14:22:11;4.83;;;2.77;;
14698;SDS011;7439;50.804;4.602;2022-09-09T14:24:39;5.47;;;3.30;;
14698;SDS011;7439;50.804;4.602;2022-09-09T14:27:08;3.93;;;3.53;;
14698;SDS011;7439;50.804;4.602;2022-09-09T14:29:35;3.17;;;2.87;;
14698;SDS011;7439;50.804;4.602;2022-09-09T14:32:02;4.27;;;3.00;;
14698;SDS011;7439;50.804;4.602;2022-09-09T14:34:30;3.43;;;3.13;;
14698;SDS011;7439;50.804;4.602;2022-09-09T14:36:57;3.70;;;2.70;;
14698;SDS011;7439;50.804;4.602;2022-09-09T14:42:02;7.77;;;3.10;;
14698;SDS011;7439;50.804;4.602;2022-09-09T14:44:31;7.00;;;3.40;;
14698;SDS011;7439;50.804;4.602;2022-09-09T14:47:00;4.13;;;3.13;;
14698;SDS011;7439;50.804;4.602;2022-09-09T14:49:27;3.20;;;2.90;;
14698;SDS011;7439;50.804;4.602;2022-09-09T14:51:54;6.00;;;3.10;;
14698;SDS011;7439;50.804;4.602;2022-09-09T14:54:21;3.67;;;3.37;;
14698;SDS011;7439;50.804;4.602;2022-09-09T14:56:48;4.57;;;3.00;;
14698;SDS011;7439;50.804;4.602;2022-09-09T14:59:16;6.90;;;2.90;;
14698;SDS011;7439;50.804;4.602;2022-09-09T15:01:46;2.97;;;2.67;;
14698;SDS011;7439;50.804;4.602;2022-09-09T15:04:17;3.03;;;2.67;;
14698;SDS011;7439;50.804;4.602;2022-09-09T15:06:47;3.47;;;2.40;;
14698;SDS011;7439;50.804;4.602;2022-09-09T15:09:18;3.90;;;2.60;;
14698;SDS011;7439;50.804;4.602;2022-09-09T15:11:45;5.50;;;3.27;;
14698;SDS011;7439;50.804;4.602;2022-09-09T15:14:14;6.33;;;3.30;;
14698;SDS011;7439;50.804;4.602;2022-09-09T15:16:42;4.03;;;2.90;;